createdAt,value
2022-10-21T00:02:14.147Z,4.28
2022-10-21T00:04:43.180Z,5.13
2022-10-21T00:07:14.845Z,4.95
2022-10-21T00:09:43.864Z,4.78
2022-10-21T00:12:12.936Z,4.13
2022-10-21T00:14:43.416Z,4.50
2022-10-21T00:17:12.501Z,4.47
2022-10-21T00:19:42.829Z,4.45
2022-10-21T00:22:11.974Z,4.50
2022-10-21T00:24:41.070Z,4.32
2022-10-21T00:27:10.320Z,5.45
2022-10-21T00:29:39.471Z,5.00
2022-10-21T00:32:10.064Z,4.63
2022-10-21T00:34:39.292Z,5.13
2022-10-21T00:37:08.344Z,4.47
2022-10-21T00:39:37.490Z,5.40
2022-10-21T00:42:07.871Z,4.57
2022-10-21T00:44:38.525Z,4.25
2022-10-21T00:47:12.603Z,4.30
2022-10-21T00:49:45.121Z,5.03
2022-10-21T00:52:17.301Z,4.07
2022-10-21T00:54:48.157Z,4.57
2022-10-21T00:57:18.743Z,4.80
2022-10-21T00:59:52.788Z,4.25
2022-10-21T01:02:23.469Z,4.60
2022-10-21T01:04:54.910Z,4.30
2022-10-21T01:07:24.402Z,4.70
2022-10-21T01:09:53.373Z,3.90
2022-10-21T01:12:34.775Z,4.53
2022-10-21T01:15:10.541Z,4.15
2022-10-21T01:17:50.123Z,4.38
2022-10-21T01:20:38.073Z,4.47
2022-10-21T01:23:50.950Z,4.82
2022-10-21T01:26:38.539Z,4.15
2022-10-21T01:29:29.193Z,3.95
2022-10-21T01:32:08.637Z,4.33
2022-10-21T01:34:43.010Z,5.75
2022-10-21T01:37:19.453Z,5.47
2022-10-21T01:39:54.222Z,4.13
2022-10-21T01:42:30.672Z,5.22
2022-10-21T01:45:05.904Z,4.43
2022-10-21T01:47:39.887Z,4.28
2022-10-21T01:50:12.076Z,4.07
2022-10-21T01:52:43.128Z,4.47
2022-10-21T01:55:16.757Z,3.88
2022-10-21T01:57:54.039Z,4.63
2022-10-21T02:00:23.233Z,4.20
2022-10-21T02:02:53.993Z,3.92
2022-10-21T02:05:26.779Z,3.28
2022-10-21T02:07:56.557Z,4.43
2022-10-21T02:10:29.127Z,3.45
2022-10-21T02:13:02.013Z,4.55
2022-10-21T02:15:34.645Z,3.38
2022-10-21T02:18:08.833Z,4.25
2022-10-21T02:20:41.183Z,4.63
2022-10-21T02:23:14.123Z,3.92
2022-10-21T02:25:47.373Z,4.40
2022-10-21T02:28:16.792Z,3.88
2022-10-21T02:30:52.920Z,3.55
2022-10-21T02:33:30.277Z,3.38
2022-10-21T02:36:08.655Z,3.90
2022-10-21T02:38:42.336Z,3.90
2022-10-21T02:41:13.030Z,3.28
2022-10-21T02:43:48.206Z,3.30
2022-10-21T02:46:17.592Z,3.60
2022-10-21T02:48:49.496Z,3.60
2022-10-21T02:51:18.847Z,3.67
2022-10-21T02:53:47.888Z,3.67
2022-10-21T02:56:17.008Z,3.70
2022-10-21T02:58:46.040Z,3.58
2022-10-21T03:01:15.098Z,3.45
2022-10-21T03:03:44.129Z,3.30
2022-10-21T03:06:14.510Z,3.30
2022-10-21T03:08:43.669Z,3.10
2022-10-21T03:11:12.694Z,4.40
2022-10-21T03:13:41.693Z,3.00
2022-10-21T03:16:10.831Z,3.50
2022-10-21T03:18:39.982Z,3.72
2022-10-21T03:21:09.047Z,3.10
2022-10-21T03:23:39.552Z,3.72
2022-10-21T03:26:08.656Z,3.30
2022-10-21T03:28:37.678Z,2.55
2022-10-21T03:31:06.959Z,3.05
2022-10-21T03:33:35.972Z,2.50
2022-10-21T03:36:05.457Z,3.45
2022-10-21T03:38:34.440Z,3.05
2022-10-21T03:41:04.869Z,2.97
2022-10-21T03:43:33.862Z,2.77
2022-10-21T03:46:02.920Z,2.45
2022-10-21T03:48:31.871Z,2.67
2022-10-21T03:51:00.970Z,2.67
2022-10-21T03:53:42.721Z,3.17
2022-10-21T03:56:14.685Z,2.60
2022-10-21T03:58:43.925Z,2.78
2022-10-21T04:01:14.197Z,3.58
2022-10-21T04:03:43.335Z,3.03
2022-10-21T04:06:12.381Z,3.15
2022-10-21T04:08:41.419Z,2.92
2022-10-21T04:11:10.540Z,3.80
2022-10-21T04:13:40.954Z,3.50
2022-10-21T04:16:14.745Z,3.07
2022-10-21T04:18:43.817Z,3.05
2022-10-21T04:21:13.031Z,4.22
2022-10-21T04:23:42.116Z,3.25
2022-10-21T04:26:11.278Z,2.83
2022-10-21T04:28:41.654Z,3.35
2022-10-21T04:31:11.128Z,3.40
2022-10-21T04:33:40.337Z,3.38
2022-10-21T04:36:09.590Z,3.58
2022-10-21T04:38:38.566Z,3.50
2022-10-21T04:41:07.543Z,3.15
2022-10-21T04:43:38.431Z,3.15
2022-10-21T04:46:12.127Z,3.80
2022-10-21T04:48:41.304Z,3.95
2022-10-21T04:51:10.386Z,3.80
2022-10-21T04:53:39.398Z,3.88
2022-10-21T04:56:08.935Z,3.15
2022-10-21T04:58:37.993Z,3.58
2022-10-21T05:01:07.195Z,3.00
2022-10-21T05:03:37.640Z,4.15
2022-10-21T05:06:06.984Z,3.60
2022-10-21T05:08:35.983Z,4.18
2022-10-21T05:11:05.303Z,4.97
2022-10-21T05:13:34.717Z,4.68
2022-10-21T05:16:05.133Z,5.13
2022-10-21T05:18:34.155Z,4.65
2022-10-21T05:21:04.803Z,4.78
2022-10-21T05:23:34.078Z,4.85
2022-10-21T05:26:03.073Z,4.25
2022-10-21T05:28:32.076Z,4.15
2022-10-21T05:31:01.182Z,3.78
2022-10-21T05:33:30.128Z,4.68
2022-10-21T05:36:01.061Z,4.15
2022-10-21T05:38:31.816Z,4.85
2022-10-21T05:41:01.126Z,4.03
2022-10-21T05:43:30.244Z,4.15
2022-10-21T05:45:59.552Z,4.63
2022-10-21T05:48:28.551Z,4.20
2022-10-21T05:50:58.109Z,4.07
2022-10-21T05:53:27.442Z,3.60
2022-10-21T05:55:59.148Z,4.65
2022-10-21T05:58:29.125Z,4.47
2022-10-21T06:00:58.790Z,5.05
2022-10-21T06:03:30.541Z,3.95
2022-10-21T06:06:00.873Z,3.67
2022-10-21T06:08:32.023Z,3.65
2022-10-21T06:11:03.647Z,3.53
2022-10-21T06:13:33.157Z,3.47
2022-10-21T06:16:02.361Z,3.45
2022-10-21T06:18:31.746Z,3.65
2022-10-21T06:21:00.863Z,4.55
2022-10-21T06:23:30.253Z,4.35
2022-10-21T06:26:00.521Z,3.65
2022-10-21T06:28:33.340Z,4.30
2022-10-21T06:31:02.680Z,4.38
2022-10-21T06:33:32.039Z,4.20
2022-10-21T06:36:01.110Z,4.25
2022-10-21T06:38:32.297Z,4.13
2022-10-21T06:41:09.163Z,4.35
2022-10-21T06:43:43.078Z,4.03
2022-10-21T06:46:17.792Z,4.55
2022-10-21T06:48:46.993Z,4.88
2022-10-21T06:51:18.083Z,4.20
2022-10-21T06:53:47.825Z,3.67
2022-10-21T06:56:19.858Z,3.63
2022-10-21T06:58:51.699Z,4.35
2022-10-21T07:01:35.001Z,4.53
2022-10-21T07:04:11.210Z,5.22
2022-10-21T07:06:40.254Z,4.53
2022-10-21T07:09:10.802Z,3.72
2022-10-21T07:11:39.832Z,4.40
2022-10-21T07:14:12.108Z,3.97
2022-10-21T07:16:41.129Z,4.38
2022-10-21T07:19:11.354Z,4.72
2022-10-21T07:21:40.377Z,3.75
2022-10-21T07:24:10.553Z,3.92
2022-10-21T07:26:40.106Z,4.28
2022-10-21T07:29:10.607Z,4.63
2022-10-21T07:31:40.069Z,4.63
2022-10-21T07:34:10.366Z,5.32
2022-10-21T07:36:42.132Z,4.83
2022-10-21T07:39:14.585Z,5.60
2022-10-21T07:41:46.004Z,6.53
2022-10-21T07:46:47.484Z,4.82
2022-10-21T07:49:18.371Z,4.60
2022-10-21T07:51:50.304Z,4.78
2022-10-21T07:54:20.312Z,5.57
2022-10-21T07:56:51.541Z,5.10
2022-10-21T07:59:23.538Z,5.15
2022-10-21T08:01:54.110Z,5.45
2022-10-21T08:04:29.792Z,5.22
2022-10-21T08:06:59.554Z,5.82
2022-10-21T08:09:28.600Z,5.07
2022-10-21T08:11:58.138Z,5.90
2022-10-21T08:14:28.678Z,5.47
2022-10-21T08:16:57.689Z,5.23
2022-10-21T08:19:29.981Z,6.65
2022-10-21T08:22:00.876Z,6.03
2022-10-21T08:24:30.309Z,6.07
2022-10-21T08:26:59.327Z,6.15
2022-10-21T08:29:29.820Z,6.57
2022-10-21T08:31:58.900Z,7.53
2022-10-21T08:34:28.175Z,6.65
2022-10-21T08:36:57.505Z,6.65
2022-10-21T08:39:26.642Z,6.32
2022-10-21T08:42:07.663Z,7.88
2022-10-21T08:44:46.083Z,8.00
2022-10-21T08:47:32.603Z,7.63
2022-10-21T08:50:04.135Z,6.47
2022-10-21T08:52:41.158Z,6.82
2022-10-21T08:55:18.625Z,6.22
2022-10-21T08:57:48.721Z,8.27
2022-10-21T09:00:21.912Z,7.38
2022-10-21T09:03:17.370Z,6.10
2022-10-21T09:06:15.104Z,6.50
2022-10-21T09:09:02.946Z,6.55
2022-10-21T09:11:47.569Z,8.02
2022-10-21T09:14:39.754Z,6.85
2022-10-21T09:17:22.449Z,6.65
2022-10-21T09:19:59.803Z,7.28
2022-10-21T09:22:42.965Z,7.40
2022-10-21T09:25:21.546Z,7.72
2022-10-21T09:27:56.585Z,6.85
2022-10-21T09:30:27.502Z,7.18
2022-10-21T09:33:04.065Z,7.40
2022-10-21T09:35:39.049Z,8.00
2022-10-21T09:38:16.030Z,7.65
2022-10-21T09:40:48.495Z,6.57
2022-10-21T09:43:19.791Z,5.55
2022-10-21T09:48:31.624Z,5.65
2022-10-21T09:51:10.949Z,7.43
2022-10-21T09:53:51.671Z,7.82
2022-10-21T09:56:26.186Z,5.05
2022-10-21T09:59:07.532Z,4.32
2022-10-21T10:01:39.278Z,4.40
2022-10-21T10:06:44.837Z,4.03
2022-10-21T10:09:18.883Z,4.85
2022-10-21T10:11:54.904Z,5.78
2022-10-21T10:14:28.194Z,6.50
2022-10-21T10:16:58.056Z,7.10
2022-10-21T10:19:30.050Z,7.68
2022-10-21T10:22:11.214Z,8.57
2022-10-21T10:24:41.633Z,9.57
2022-10-21T10:27:15.735Z,9.88
2022-10-21T10:29:53.726Z,9.75
2022-10-21T10:32:26.017Z,7.47
2022-10-21T10:34:59.821Z,8.60
2022-10-21T10:37:32.685Z,8.63
2022-10-21T10:40:04.933Z,7.32
2022-10-21T10:42:37.701Z,8.95
2022-10-21T10:45:15.887Z,8.93
2022-10-21T10:47:51.570Z,9.52
2022-10-21T10:50:46.869Z,8.65
2022-10-21T10:53:29.708Z,9.68
2022-10-21T10:56:19.789Z,10.45
2022-10-21T10:58:57.881Z,8.95
2022-10-21T11:01:32.469Z,9.60
2022-10-21T11:04:11.456Z,8.68
2022-10-21T11:06:46.946Z,8.52
2022-10-21T11:09:17.236Z,7.07
2022-10-21T11:11:49.351Z,6.32
2022-10-21T11:14:22.531Z,6.60
2022-10-21T11:17:01.966Z,6.80
2022-10-21T11:19:39.978Z,7.05
2022-10-21T11:22:16.440Z,6.50
2022-10-21T11:24:56.383Z,6.68
2022-10-21T11:27:47.533Z,6.10
2022-10-21T11:30:20.030Z,5.57
2022-10-21T11:32:58.188Z,5.53
2022-10-21T11:35:38.524Z,5.97
2022-10-21T11:38:52.762Z,5.60
2022-10-21T11:41:29.664Z,5.45
2022-10-21T11:44:12.881Z,4.80
2022-10-21T11:46:50.147Z,5.18
2022-10-21T11:49:37.180Z,5.03
2022-10-21T11:52:16.860Z,5.05
2022-10-21T11:55:10.685Z,4.32
2022-10-21T11:57:49.045Z,4.93
2022-10-21T12:00:21.792Z,4.22
2022-10-21T12:03:10.685Z,4.85
2022-10-21T12:05:53.076Z,5.00
2022-10-21T12:08:27.473Z,4.65
2022-10-21T12:11:02.142Z,4.82
2022-10-21T12:13:34.589Z,4.38
2022-10-21T12:16:08.941Z,4.85
2022-10-21T12:18:44.199Z,5.03
2022-10-21T12:21:17.747Z,4.20
2022-10-21T12:23:54.017Z,5.78
2022-10-21T12:26:28.023Z,4.70
2022-10-21T12:29:03.881Z,4.68
2022-10-21T12:31:46.042Z,4.32
2022-10-21T12:34:15.931Z,5.53
2022-10-21T12:36:49.513Z,4.70
2022-10-21T12:39:37.094Z,5.00
2022-10-21T12:42:13.184Z,4.15
2022-10-21T12:44:48.066Z,4.22
2022-10-21T12:47:30.135Z,4.22
2022-10-21T12:50:29.397Z,4.80
2022-10-21T12:53:09.378Z,5.20
2022-10-21T12:55:41.427Z,5.25
2022-10-21T12:58:31.805Z,5.45
2022-10-21T13:01:02.624Z,7.18
2022-10-21T13:04:00.927Z,6.60
2022-10-21T13:06:53.791Z,8.38
2022-10-21T13:09:35.875Z,8.57
2022-10-21T13:12:16.176Z,6.65
2022-10-21T13:14:48.759Z,9.20
2022-10-21T13:17:31.493Z,8.43
2022-10-21T13:20:38.545Z,7.53
2022-10-21T13:23:31.820Z,8.30
2022-10-21T13:26:25.979Z,8.18
2022-10-21T13:29:00.552Z,8.05
2022-10-21T13:31:31.425Z,7.40
2022-10-21T13:34:00.946Z,8.10
2022-10-21T13:36:39.671Z,8.88
2022-10-21T13:39:24.525Z,10.30
2022-10-21T13:42:01.288Z,10.32
2022-10-21T13:44:35.512Z,10.55
2022-10-21T13:47:28.373Z,8.23
2022-10-21T13:49:59.416Z,8.45
2022-10-21T13:52:29.809Z,8.20
2022-10-21T13:55:00.059Z,8.10
2022-10-21T13:57:32.702Z,8.50
2022-10-21T14:00:03.209Z,8.70
2022-10-21T14:02:35.374Z,8.77
2022-10-21T14:05:04.650Z,8.55
2022-10-21T14:07:34.346Z,8.40
2022-10-21T14:10:07.466Z,7.90
2022-10-21T14:12:41.764Z,9.65
2022-10-21T14:15:18.144Z,11.23
2022-10-21T14:17:55.207Z,9.05
2022-10-21T14:20:33.972Z,8.65
2022-10-21T14:23:05.442Z,8.93
2022-10-21T14:25:35.066Z,7.18
2022-10-21T14:28:06.303Z,8.73
2022-10-21T14:30:37.224Z,8.27
2022-10-21T14:33:08.555Z,8.25
2022-10-21T14:38:26.819Z,8.05
2022-10-21T14:41:02.060Z,8.30
2022-10-21T14:43:35.061Z,12.23
2022-10-21T14:46:07.143Z,12.73
2022-10-21T14:48:41.545Z,15.38
2022-10-21T14:51:16.574Z,13.32
2022-10-21T14:53:54.926Z,13.57
2022-10-21T14:56:30.949Z,9.00
2022-10-21T14:59:01.957Z,9.15
2022-10-21T15:01:32.148Z,7.65
2022-10-21T15:04:02.856Z,10.77
2022-10-21T15:06:34.594Z,9.57
2022-10-21T15:09:17.799Z,8.98
2022-10-21T15:11:48.556Z,8.00
2022-10-21T15:14:24.189Z,9.02
2022-10-21T15:16:55.764Z,7.53
2022-10-21T15:19:28.280Z,7.82
2022-10-21T15:22:00.682Z,9.38
2022-10-21T15:24:38.361Z,8.65
2022-10-21T15:27:07.717Z,9.15
2022-10-21T15:29:39.269Z,8.77
2022-10-21T15:32:08.375Z,8.75
2022-10-21T15:34:38.893Z,18.98
2022-10-21T15:37:08.257Z,11.15
2022-10-21T15:39:37.324Z,17.77
2022-10-21T15:42:06.931Z,19.88
2022-10-21T15:44:36.057Z,17.60
2022-10-21T15:47:11.133Z,11.45
2022-10-21T15:49:42.393Z,12.00
2022-10-21T15:52:11.682Z,9.25
2022-10-21T15:54:40.663Z,11.52
2022-10-21T15:57:18.041Z,9.65
2022-10-21T15:59:47.636Z,10.30
2022-10-21T16:02:18.549Z,9.25
2022-10-21T16:04:53.008Z,9.50
2022-10-21T16:07:25.048Z,10.07
2022-10-21T16:09:54.174Z,9.70
2022-10-21T16:12:24.560Z,9.50
2022-10-21T16:14:54.390Z,10.10
2022-10-21T16:17:24.411Z,9.43
2022-10-21T16:19:54.875Z,7.70
2022-10-21T16:22:24.271Z,7.87
2022-10-21T16:24:53.339Z,7.88
2022-10-21T16:27:31.029Z,8.20
2022-10-21T16:30:17.722Z,8.65
2022-10-21T16:32:47.300Z,9.88
2022-10-21T16:35:18.704Z,9.23
2022-10-21T16:40:20.922Z,8.75
2022-10-21T16:42:50.922Z,10.57
2022-10-21T16:45:21.802Z,10.60
2022-10-21T16:47:53.357Z,8.20
2022-10-21T16:50:26.870Z,9.07
2022-10-21T16:52:55.863Z,8.45
2022-10-21T16:55:24.866Z,11.60
2022-10-21T16:57:53.875Z,10.05
2022-10-21T17:00:23.600Z,10.35
2022-10-21T17:02:52.859Z,9.73
2022-10-21T17:05:23.527Z,10.15
2022-10-21T17:07:52.703Z,9.38
2022-10-21T17:10:21.708Z,9.98
2022-10-21T17:12:57.027Z,10.75
2022-10-21T17:15:27.971Z,9.93
2022-10-21T17:17:57.028Z,9.35
2022-10-21T17:20:30.466Z,9.70
2022-10-21T17:22:59.855Z,12.48
2022-10-21T17:25:30.094Z,9.23
2022-10-21T17:27:59.304Z,14.32
2022-10-21T17:30:28.635Z,15.40
2022-10-21T17:32:57.940Z,13.43
2022-10-21T17:35:28.440Z,21.80
2022-10-21T17:37:57.483Z,13.80
2022-10-21T17:40:27.880Z,13.25
2022-10-21T17:42:58.420Z,9.57
2022-10-21T17:45:27.478Z,9.37
2022-10-21T17:47:56.488Z,12.00
2022-10-21T17:50:26.004Z,13.35
2022-10-21T17:52:56.742Z,14.82
2022-10-21T17:55:27.072Z,9.27
2022-10-21T17:57:56.112Z,10.32
2022-10-21T18:00:25.242Z,10.23
2022-10-21T18:02:54.547Z,10.43
2022-10-21T18:05:23.646Z,9.15
2022-10-21T18:07:52.754Z,15.32
2022-10-21T18:10:23.389Z,13.70
2022-10-21T18:12:52.485Z,12.15
2022-10-21T18:15:22.516Z,10.48
2022-10-21T18:17:51.588Z,16.35
2022-10-21T18:20:20.993Z,11.63
2022-10-21T18:22:50.128Z,14.80
2022-10-21T18:25:19.438Z,14.23
2022-10-21T18:27:49.873Z,17.30
2022-10-21T18:30:19.066Z,11.93
2022-10-21T18:32:48.303Z,8.73
2022-10-21T18:35:17.481Z,14.52
2022-10-21T18:37:47.067Z,13.73
2022-10-21T18:40:16.062Z,12.70
2022-10-21T18:42:45.126Z,9.73
2022-10-21T18:45:15.799Z,7.28
2022-10-21T18:47:47.416Z,10.13
2022-10-21T18:50:16.834Z,9.32
2022-10-21T18:52:46.212Z,8.20
2022-10-21T18:55:15.421Z,8.00
2022-10-21T18:57:44.897Z,8.25
2022-10-21T19:00:16.069Z,8.07
2022-10-21T19:02:45.106Z,8.40
2022-10-21T19:05:14.112Z,7.25
2022-10-21T19:07:43.305Z,7.85
2022-10-21T19:10:13.998Z,7.22
2022-10-21T19:12:43.189Z,7.78
2022-10-21T19:15:12.646Z,7.55
2022-10-21T19:17:43.962Z,7.55
2022-10-21T19:22:42.814Z,7.18
2022-10-21T19:25:11.895Z,7.88
2022-10-21T19:27:41.492Z,6.75
2022-10-21T19:30:11.843Z,7.38
2022-10-21T19:32:42.607Z,7.22
2022-10-21T19:35:11.945Z,7.28
2022-10-21T19:37:40.975Z,7.50
2022-10-21T19:40:10.690Z,7.53
2022-10-21T19:42:41.244Z,7.45
2022-10-21T19:45:16.957Z,8.93
2022-10-21T19:47:47.767Z,8.73
2022-10-21T19:50:16.975Z,8.43
2022-10-21T19:52:49.045Z,8.70
2022-10-21T19:55:19.202Z,8.25
2022-10-21T19:57:48.480Z,7.07
2022-10-21T20:00:17.700Z,7.38
2022-10-21T20:02:48.118Z,7.72
2022-10-21T20:05:17.270Z,9.60
2022-10-21T20:07:46.328Z,8.75
2022-10-21T20:10:15.762Z,6.80
2022-10-21T20:12:44.728Z,7.30
2022-10-21T20:15:13.872Z,6.95
2022-10-21T20:17:42.975Z,6.75
2022-10-21T20:20:13.660Z,7.60
2022-10-21T20:22:43.173Z,8.20
2022-10-21T20:25:12.606Z,7.55
2022-10-21T20:27:42.254Z,8.43
2022-10-21T20:30:12.453Z,7.68
2022-10-21T20:32:41.827Z,8.40
2022-10-21T20:35:12.391Z,8.07
2022-10-21T20:37:41.968Z,8.65
2022-10-21T20:40:12.170Z,7.43
2022-10-21T20:42:41.357Z,8.88
2022-10-21T20:45:11.450Z,8.95
2022-10-21T20:47:40.661Z,8.02
2022-10-21T20:50:10.743Z,8.00
2022-10-21T20:52:41.634Z,9.43
2022-10-21T20:55:11.160Z,8.05
2022-10-21T20:57:40.595Z,7.18
2022-10-21T21:00:13.347Z,8.00
2022-10-21T21:02:43.980Z,8.55
2022-10-21T21:05:15.929Z,8.20
2022-10-21T21:07:46.388Z,7.93
2022-10-21T21:10:15.670Z,7.80
2022-10-21T21:12:44.818Z,8.15
2022-10-21T21:15:13.900Z,7.35
2022-10-21T21:17:43.005Z,6.85
2022-10-21T21:20:13.534Z,7.38
2022-10-21T21:22:43.019Z,8.02
2022-10-21T21:25:13.643Z,7.07
2022-10-21T21:27:42.823Z,8.10
2022-10-21T21:30:12.971Z,8.48
2022-10-21T21:32:42.216Z,8.00
2022-10-21T21:35:12.711Z,8.05
2022-10-21T21:37:41.723Z,8.27
2022-10-21T21:40:13.245Z,12.02
2022-10-21T21:42:42.405Z,8.70
2022-10-21T21:45:12.332Z,7.88
2022-10-21T21:47:41.324Z,8.27
2022-10-21T21:50:10.932Z,9.38
2022-10-21T21:52:39.959Z,8.95
2022-10-21T21:55:09.674Z,8.27
2022-10-21T21:57:40.078Z,8.70
2022-10-21T22:00:10.433Z,8.50
2022-10-21T22:02:39.501Z,7.25
2022-10-21T22:05:09.180Z,7.15
2022-10-21T22:07:38.281Z,6.22
2022-10-21T22:10:08.267Z,5.97
2022-10-21T22:12:37.281Z,6.63
2022-10-21T22:15:13.597Z,5.93
2022-10-21T22:17:45.545Z,6.50
2022-10-21T22:20:14.557Z,7.65
2022-10-21T22:22:43.662Z,8.43
2022-10-21T22:25:15.200Z,7.68
2022-10-21T22:27:44.321Z,7.20
2022-10-21T22:30:16.374Z,7.60
2022-10-21T22:32:45.461Z,7.85
2022-10-21T22:35:16.214Z,7.68
2022-10-21T22:37:45.290Z,9.05
2022-10-21T22:40:14.321Z,8.98
2022-10-21T22:45:15.404Z,7.40
2022-10-21T22:47:44.467Z,8.02
2022-10-21T22:50:13.670Z,7.20
2022-10-21T22:52:43.422Z,7.03
2022-10-21T22:55:12.788Z,6.95
2022-10-21T22:57:42.135Z,7.60
2022-10-21T23:00:12.276Z,6.20
2022-10-21T23:02:43.092Z,5.93
2022-10-21T23:05:12.408Z,5.88
2022-10-21T23:07:41.505Z,6.13
2022-10-21T23:10:11.596Z,5.53
2022-10-21T23:12:40.898Z,5.10
2022-10-21T23:15:10.961Z,5.55
2022-10-21T23:17:39.918Z,5.70
2022-10-21T23:20:13.758Z,6.20
2022-10-21T23:22:43.100Z,5.40
2022-10-21T23:25:12.326Z,5.40
2022-10-21T23:27:41.399Z,5.78
2022-10-21T23:30:11.578Z,5.85
2022-10-21T23:32:40.900Z,5.95
2022-10-21T23:35:11.742Z,5.72
2022-10-21T23:37:41.187Z,6.53
2022-10-21T23:40:11.840Z,5.47
2022-10-21T23:42:42.873Z,6.53
2022-10-21T23:45:13.038Z,5.07
2022-10-21T23:47:42.432Z,4.63
2022-10-21T23:50:13.740Z,3.33
2022-10-21T23:52:42.821Z,3.17
2022-10-21T23:55:12.324Z,2.58
2022-10-21T23:57:41.526Z,3.25
